Terminal Aerodrome Forecast
Issued by NWS

Home | Current Version | Previous Version | Text Only | Print | Product List | Glossary On
Versions: 1 2 3 4 5 6 7 8 9 10 11 12 13 14 15 16 17 18
000
FTUS44 KOUN 291251 AAA
TAFPNC
TAF AMD
KPNC 291251Z 2913/3012 15006KT P6SM SCT100 BKN250
      TEMPO 2915/2919 4SM -TSRA BR OVC025CB
     FM291900 17009KT P6SM BKN250
     FM300900 10007KT P6SM OVC025=

USA.gov is the U.S. government's official web portal to all federal, state and local government web resources and services.